sensor_id;sensor_type;location;lat;lon;timestamp;P1;durP1;ratioP1;P2;durP2;ratioP2
38379;SDS011;38377;47.418;18.882;2022-11-22T00:01:02;245.17;;;54.80;;
38379;SDS011;38377;47.418;18.882;2022-11-22T00:03:28;313.50;;;59.83;;
38379;SDS011;38377;47.418;18.882;2022-11-22T00:05:54;301.00;;;56.97;;
38379;SDS011;38377;47.418;18.882;2022-11-22T00:08:19;248.10;;;56.23;;
38379;SDS011;38377;47.418;18.882;2022-11-22T00:10:47;239.13;;;53.53;;
38379;SDS011;38377;47.418;18.882;2022-11-22T00:13:13;272.77;;;54.07;;
38379;SDS011;38377;47.418;18.882;2022-11-22T00:15:40;335.80;;;66.60;;
38379;SDS011;38377;47.418;18.882;2022-11-22T00:18:05;219.87;;;52.33;;
38379;SDS011;38377;47.418;18.882;2022-11-22T00:20:32;223.10;;;53.60;;
38379;SDS011;38377;47.418;18.882;2022-11-22T00:22:58;272.70;;;58.50;;
38379;SDS011;38377;47.418;18.882;2022-11-22T00:25:24;196.40;;;46.67;;
38379;SDS011;38377;47.418;18.882;2022-11-22T00:27:51;231.63;;;55.40;;
38379;SDS011;38377;47.418;18.882;2022-11-22T00:30:17;211.07;;;50.67;;
38379;SDS011;38377;47.418;18.882;2022-11-22T00:32:43;275.80;;;51.90;;
38379;SDS011;38377;47.418;18.882;2022-11-22T00:35:09;272.53;;;58.73;;
38379;SDS011;38377;47.418;18.882;2022-11-22T00:37:36;260.73;;;53.40;;
38379;SDS011;38377;47.418;18.882;2022-11-22T00:40:02;300.10;;;55.13;;
38379;SDS011;38377;47.418;18.882;2022-11-22T00:42:28;260.10;;;53.07;;
38379;SDS011;38377;47.418;18.882;2022-11-22T00:44:54;335.23;;;66.03;;
38379;SDS011;38377;47.418;18.882;2022-11-22T00:47:19;320.83;;;56.47;;
38379;SDS011;38377;47.418;18.882;2022-11-22T00:49:45;367.33;;;57.67;;
38379;SDS011;38377;47.418;18.882;2022-11-22T00:52:11;355.37;;;60.27;;
38379;SDS011;38377;47.418;18.882;2022-11-22T00:54:37;257.23;;;52.53;;
38379;SDS011;38377;47.418;18.882;2022-11-22T00:57:02;223.70;;;47.47;;
38379;SDS011;38377;47.418;18.882;2022-11-22T00:59:28;349.13;;;64.80;;
38379;SDS011;38377;47.418;18.882;2022-11-22T01:01:54;103.23;;;33.13;;
38379;SDS011;38377;47.418;18.882;2022-11-22T01:04:19;130.93;;;35.77;;
38379;SDS011;38377;47.418;18.882;2022-11-22T01:06:45;183.87;;;42.67;;
38379;SDS011;38377;47.418;18.882;2022-11-22T01:09:11;348.50;;;65.07;;
38379;SDS011;38377;47.418;18.882;2022-11-22T01:11:42;210.57;;;45.13;;
38379;SDS011;38377;47.418;18.882;2022-11-22T01:14:08;499.10;;;76.97;;
38379;SDS011;38377;47.418;18.882;2022-11-22T01:16:34;268.20;;;50.57;;
38379;SDS011;38377;47.418;18.882;2022-11-22T01:19:00;435.43;;;68.47;;
38379;SDS011;38377;47.418;18.882;2022-11-22T01:21:25;445.10;;;67.03;;
38379;SDS011;38377;47.418;18.882;2022-11-22T01:23:51;347.90;;;57.97;;
38379;SDS011;38377;47.418;18.882;2022-11-22T01:26:17;268.60;;;49.53;;
38379;SDS011;38377;47.418;18.882;2022-11-22T01:28:42;284.83;;;52.80;;
38379;SDS011;38377;47.418;18.882;2022-11-22T01:31:08;376.57;;;63.27;;
38379;SDS011;38377;47.418;18.882;2022-11-22T01:33:34;253.97;;;48.30;;
38379;SDS011;38377;47.418;18.882;2022-11-22T01:35:59;368.23;;;60.60;;
38379;SDS011;38377;47.418;18.882;2022-11-22T01:38:25;201.73;;;43.17;;
38379;SDS011;38377;47.418;18.882;2022-11-22T01:40:51;260.40;;;50.10;;
38379;SDS011;38377;47.418;18.882;2022-11-22T01:43:21;459.03;;;71.80;;
38379;SDS011;38377;47.418;18.882;2022-11-22T01:50:44;190.53;;;41.73;;
38379;SDS011;38377;47.418;18.882;2022-11-22T01:53:14;223.27;;;45.73;;
38379;SDS011;38377;47.418;18.882;2022-11-22T01:55:43;280.27;;;52.20;;
38379;SDS011;38377;47.418;18.882;2022-11-22T01:58:10;136.50;;;35.53;;
38379;SDS011;38377;47.418;18.882;2022-11-22T02:00:38;218.37;;;45.77;;
38379;SDS011;38377;47.418;18.882;2022-11-22T02:03:04;247.07;;;46.57;;
38379;SDS011;38377;47.418;18.882;2022-11-22T02:05:32;131.20;;;35.43;;
38379;SDS011;38377;47.418;18.882;2022-11-22T02:08:01;216.07;;;45.50;;
38379;SDS011;38377;47.418;18.882;2022-11-22T02:10:32;123.80;;;36.93;;
38379;SDS011;38377;47.418;18.882;2022-11-22T02:13:01;151.43;;;39.63;;
38379;SDS011;38377;47.418;18.882;2022-11-22T02:15:27;282.70;;;53.37;;
38379;SDS011;38377;47.418;18.882;2022-11-22T02:17:55;204.00;;;48.07;;
38379;SDS011;38377;47.418;18.882;2022-11-22T02:20:21;193.67;;;45.63;;
38379;SDS011;38377;47.418;18.882;2022-11-22T02:28:25;332.57;;;56.53;;
38379;SDS011;38377;47.418;18.882;2022-11-22T02:30:53;307.37;;;57.53;;
38379;SDS011;38377;47.418;18.882;2022-11-22T02:33:19;286.97;;;53.07;;
38379;SDS011;38377;47.418;18.882;2022-11-22T02:35:45;210.37;;;46.43;;
38379;SDS011;38377;47.418;18.882;2022-11-22T02:38:12;197.57;;;42.53;;
38379;SDS011;38377;47.418;18.882;2022-11-22T02:40:57;336.80;;;60.63;;
38379;SDS011;38377;47.418;18.882;2022-11-22T02:43:28;179.40;;;40.40;;
38379;SDS011;38377;47.418;18.882;2022-11-22T02:46:01;167.80;;;40.27;;
38379;SDS011;38377;47.418;18.882;2022-11-22T02:48:41;302.27;;;53.93;;
38379;SDS011;38377;47.418;18.882;2022-11-22T02:51:07;186.87;;;41.73;;
38379;SDS011;38377;47.418;18.882;2022-11-22T02:53:33;360.53;;;60.70;;
38379;SDS011;38377;47.418;18.882;2022-11-22T02:55:59;187.33;;;43.10;;
38379;SDS011;38377;47.418;18.882;2022-11-22T02:58:25;260.50;;;51.13;;
38379;SDS011;38377;47.418;18.882;2022-11-22T03:00:50;211.10;;;48.30;;
38379;SDS011;38377;47.418;18.882;2022-11-22T03:03:16;252.60;;;50.43;;
38379;SDS011;38377;47.418;18.882;2022-11-22T03:05:42;230.33;;;49.30;;
38379;SDS011;38377;47.418;18.882;2022-11-22T03:08:07;368.77;;;68.43;;
38379;SDS011;38377;47.418;18.882;2022-11-22T03:10:33;206.17;;;45.73;;
38379;SDS011;38377;47.418;18.882;2022-11-22T03:12:58;347.07;;;60.27;;
38379;SDS011;38377;47.418;18.882;2022-11-22T03:15:24;345.30;;;66.37;;
38379;SDS011;38377;47.418;18.882;2022-11-22T03:18:00;211.73;;;46.30;;
38379;SDS011;38377;47.418;18.882;2022-11-22T03:20:27;142.63;;;45.27;;
38379;SDS011;38377;47.418;18.882;2022-11-22T03:22:53;138.07;;;41.50;;
38379;SDS011;38377;47.418;18.882;2022-11-22T03:25:19;179.87;;;44.73;;
38379;SDS011;38377;47.418;18.882;2022-11-22T03:27:45;163.40;;;41.50;;
38379;SDS011;38377;47.418;18.882;2022-11-22T03:30:11;112.93;;;33.47;;
38379;SDS011;38377;47.418;18.882;2022-11-22T03:32:37;295.80;;;52.87;;
38379;SDS011;38377;47.418;18.882;2022-11-22T03:35:03;341.40;;;62.87;;
38379;SDS011;38377;47.418;18.882;2022-11-22T03:37:29;241.37;;;46.90;;
38379;SDS011;38377;47.418;18.882;2022-11-22T03:39:54;218.57;;;50.07;;
38379;SDS011;38377;47.418;18.882;2022-11-22T03:42:20;290.90;;;60.63;;
38379;SDS011;38377;47.418;18.882;2022-11-22T03:44:46;184.93;;;48.80;;
38379;SDS011;38377;47.418;18.882;2022-11-22T03:47:11;144.10;;;41.73;;
38379;SDS011;38377;47.418;18.882;2022-11-22T03:49:37;136.70;;;46.10;;
38379;SDS011;38377;47.418;18.882;2022-11-22T03:52:03;122.70;;;44.27;;
38379;SDS011;38377;47.418;18.882;2022-11-22T03:54:29;127.00;;;43.37;;
38379;SDS011;38377;47.418;18.882;2022-11-22T03:56:54;143.07;;;46.77;;
38379;SDS011;38377;47.418;18.882;2022-11-22T03:59:20;140.70;;;46.70;;
38379;SDS011;38377;47.418;18.882;2022-11-22T04:01:46;141.00;;;44.93;;
38379;SDS011;38377;47.418;18.882;2022-11-22T04:04:11;178.63;;;49.30;;
38379;SDS011;38377;47.418;18.882;2022-11-22T04:06:37;175.70;;;51.93;;
38379;SDS011;38377;47.418;18.882;2022-11-22T04:09:04;159.17;;;46.90;;
38379;SDS011;38377;47.418;18.882;2022-11-22T04:11:29;208.83;;;55.13;;
38379;SDS011;38377;47.418;18.882;2022-11-22T04:13:55;161.80;;;50.77;;
38379;SDS011;38377;47.418;18.882;2022-11-22T04:16:39;211.07;;;49.03;;
38379;SDS011;38377;47.418;18.882;2022-11-22T04:19:05;409.30;;;75.67;;
38379;SDS011;38377;47.418;18.882;2022-11-22T04:21:31;311.67;;;65.57;;
38379;SDS011;38377;47.418;18.882;2022-11-22T04:24:06;243.57;;;50.90;;
38379;SDS011;38377;47.418;18.882;2022-11-22T04:26:53;403.33;;;64.67;;
38379;SDS011;38377;47.418;18.882;2022-11-22T04:29:19;143.90;;;40.07;;
38379;SDS011;38377;47.418;18.882;2022-11-22T04:31:45;133.77;;;44.10;;
38379;SDS011;38377;47.418;18.882;2022-11-22T04:34:30;147.10;;;43.53;;
38379;SDS011;38377;47.418;18.882;2022-11-22T04:36:56;186.30;;;48.63;;
38379;SDS011;38377;47.418;18.882;2022-11-22T04:39:22;178.63;;;44.43;;
38379;SDS011;38377;47.418;18.882;2022-11-22T04:41:47;118.60;;;40.07;;
38379;SDS011;38377;47.418;18.882;2022-11-22T04:44:36;250.67;;;51.67;;
38379;SDS011;38377;47.418;18.882;2022-11-22T04:47:05;132.17;;;38.90;;
38379;SDS011;38377;47.418;18.882;2022-11-22T04:49:35;188.65;;;47.13;;
38379;SDS011;38377;47.418;18.882;2022-11-22T04:52:00;200.27;;;51.47;;
38379;SDS011;38377;47.418;18.882;2022-11-22T04:54:45;130.07;;;43.47;;
38379;SDS011;38377;47.418;18.882;2022-11-22T04:57:11;143.17;;;48.10;;
38379;SDS011;38377;47.418;18.882;2022-11-22T04:59:37;168.30;;;49.60;;
38379;SDS011;38377;47.418;18.882;2022-11-22T05:02:02;119.10;;;41.47;;
38379;SDS011;38377;47.418;18.882;2022-11-22T05:04:28;99.07;;;38.70;;
38379;SDS011;38377;47.418;18.882;2022-11-22T05:06:55;158.00;;;46.70;;
38379;SDS011;38377;47.418;18.882;2022-11-22T05:09:22;119.90;;;45.03;;
38379;SDS011;38377;47.418;18.882;2022-11-22T05:11:47;123.87;;;36.10;;
38379;SDS011;38377;47.418;18.882;2022-11-22T05:14:13;147.03;;;49.37;;
38379;SDS011;38377;47.418;18.882;2022-11-22T05:16:39;96.60;;;39.77;;
38379;SDS011;38377;47.418;18.882;2022-11-22T05:19:05;140.27;;;47.93;;
38379;SDS011;38377;47.418;18.882;2022-11-22T05:21:31;107.33;;;42.67;;
38379;SDS011;38377;47.418;18.882;2022-11-22T05:23:59;90.67;;;35.77;;
38379;SDS011;38377;47.418;18.882;2022-11-22T05:26:27;125.17;;;40.97;;
38379;SDS011;38377;47.418;18.882;2022-11-22T05:28:54;111.13;;;43.43;;
38379;SDS011;38377;47.418;18.882;2022-11-22T05:31:23;108.70;;;43.20;;
38379;SDS011;38377;47.418;18.882;2022-11-22T05:33:51;90.47;;;38.87;;
38379;SDS011;38377;47.418;18.882;2022-11-22T05:36:18;124.50;;;52.00;;
38379;SDS011;38377;47.418;18.882;2022-11-22T05:38:44;115.13;;;45.13;;
38379;SDS011;38377;47.418;18.882;2022-11-22T05:41:11;115.90;;;46.37;;
38379;SDS011;38377;47.418;18.882;2022-11-22T05:43:37;97.83;;;43.67;;
38379;SDS011;38377;47.418;18.882;2022-11-22T05:46:09;109.53;;;46.00;;
38379;SDS011;38377;47.418;18.882;2022-11-22T05:48:38;94.33;;;41.87;;
38379;SDS011;38377;47.418;18.882;2022-11-22T05:51:06;93.90;;;40.33;;
38379;SDS011;38377;47.418;18.882;2022-11-22T05:53:32;90.93;;;39.43;;
38379;SDS011;38377;47.418;18.882;2022-11-22T05:56:03;96.30;;;41.97;;
38379;SDS011;38377;47.418;18.882;2022-11-22T05:58:33;81.83;;;37.03;;
38379;SDS011;38377;47.418;18.882;2022-11-22T06:01:02;83.13;;;40.13;;
38379;SDS011;38377;47.418;18.882;2022-11-22T06:05:55;85.80;;;38.67;;
38379;SDS011;38377;47.418;18.882;2022-11-22T06:08:21;84.47;;;38.53;;
38379;SDS011;38377;47.418;18.882;2022-11-22T06:10:47;88.97;;;39.60;;
38379;SDS011;38377;47.418;18.882;2022-11-22T06:13:12;76.30;;;38.20;;
38379;SDS011;38377;47.418;18.882;2022-11-22T06:15:38;73.27;;;36.60;;
38379;SDS011;38377;47.418;18.882;2022-11-22T06:18:04;75.97;;;36.13;;
38379;SDS011;38377;47.418;18.882;2022-11-22T06:20:29;72.77;;;39.23;;
38379;SDS011;38377;47.418;18.882;2022-11-22T06:22:58;63.67;;;31.20;;
38379;SDS011;38377;47.418;18.882;2022-11-22T06:25:24;63.23;;;35.43;;
38379;SDS011;38377;47.418;18.882;2022-11-22T06:27:50;63.20;;;31.23;;
38379;SDS011;38377;47.418;18.882;2022-11-22T06:30:15;65.70;;;34.40;;
38379;SDS011;38377;47.418;18.882;2022-11-22T06:32:41;62.83;;;33.33;;
38379;SDS011;38377;47.418;18.882;2022-11-22T06:35:07;59.60;;;32.57;;
38379;SDS011;38377;47.418;18.882;2022-11-22T06:37:33;54.83;;;30.97;;
38379;SDS011;38377;47.418;18.882;2022-11-22T06:39:59;60.10;;;31.60;;
38379;SDS011;38377;47.418;18.882;2022-11-22T06:42:24;62.70;;;33.47;;
38379;SDS011;38377;47.418;18.882;2022-11-22T06:44:50;57.93;;;32.13;;
38379;SDS011;38377;47.418;18.882;2022-11-22T06:47:16;61.13;;;33.13;;
38379;SDS011;38377;47.418;18.882;2022-11-22T06:49:42;60.67;;;31.53;;
38379;SDS011;38377;47.418;18.882;2022-11-22T06:52:09;59.30;;;32.53;;
38379;SDS011;38377;47.418;18.882;2022-11-22T06:54:35;61.13;;;33.17;;
38379;SDS011;38377;47.418;18.882;2022-11-22T06:57:00;57.10;;;31.63;;
38379;SDS011;38377;47.418;18.882;2022-11-22T06:59:26;56.30;;;32.17;;
38379;SDS011;38377;47.418;18.882;2022-11-22T07:01:52;52.17;;;30.77;;
38379;SDS011;38377;47.418;18.882;2022-11-22T07:04:17;53.77;;;31.70;;
38379;SDS011;38377;47.418;18.882;2022-11-22T07:06:43;49.57;;;28.70;;
38379;SDS011;38377;47.418;18.882;2022-11-22T07:09:10;52.57;;;27.97;;
38379;SDS011;38377;47.418;18.882;2022-11-22T07:11:36;50.10;;;27.20;;
38379;SDS011;38377;47.418;18.882;2022-11-22T07:14:02;55.90;;;29.53;;
38379;SDS011;38377;47.418;18.882;2022-11-22T07:16:29;54.60;;;27.57;;
38379;SDS011;38377;47.418;18.882;2022-11-22T07:18:57;43.33;;;24.60;;
38379;SDS011;38377;47.418;18.882;2022-11-22T07:21:23;51.90;;;27.43;;
38379;SDS011;38377;47.418;18.882;2022-11-22T07:23:50;52.33;;;27.90;;
38379;SDS011;38377;47.418;18.882;2022-11-22T07:26:18;45.90;;;27.00;;
38379;SDS011;38377;47.418;18.882;2022-11-22T07:28:44;47.70;;;25.93;;
38379;SDS011;38377;47.418;18.882;2022-11-22T07:31:11;41.90;;;24.20;;
38379;SDS011;38377;47.418;18.882;2022-11-22T07:33:38;43.27;;;22.77;;
38379;SDS011;38377;47.418;18.882;2022-11-22T07:36:08;43.73;;;24.83;;
38379;SDS011;38377;47.418;18.882;2022-11-22T07:38:35;42.83;;;22.07;;
38379;SDS011;38377;47.418;18.882;2022-11-22T07:41:02;45.70;;;24.90;;
38379;SDS011;38377;47.418;18.882;2022-11-22T07:43:28;44.13;;;25.50;;
38379;SDS011;38377;47.418;18.882;2022-11-22T07:45:57;40.13;;;22.17;;
38379;SDS011;38377;47.418;18.882;2022-11-22T07:48:27;39.90;;;22.57;;
38379;SDS011;38377;47.418;18.882;2022-11-22T07:50:53;37.80;;;21.23;;
38379;SDS011;38377;47.418;18.882;2022-11-22T07:53:18;46.13;;;24.03;;
38379;SDS011;38377;47.418;18.882;2022-11-22T07:55:44;44.50;;;24.80;;
38379;SDS011;38377;47.418;18.882;2022-11-22T07:58:10;43.83;;;24.20;;
38379;SDS011;38377;47.418;18.882;2022-11-22T08:00:35;45.17;;;24.97;;
38379;SDS011;38377;47.418;18.882;2022-11-22T08:03:01;39.17;;;21.83;;
38379;SDS011;38377;47.418;18.882;2022-11-22T08:05:27;39.37;;;21.17;;
38379;SDS011;38377;47.418;18.882;2022-11-22T08:07:53;44.73;;;25.40;;
38379;SDS011;38377;47.418;18.882;2022-11-22T08:10:19;210.23;;;50.17;;
38379;SDS011;38377;47.418;18.882;2022-11-22T08:12:45;41.77;;;23.47;;
38379;SDS011;38377;47.418;18.882;2022-11-22T08:15:12;42.20;;;23.50;;
38379;SDS011;38377;47.418;18.882;2022-11-22T08:17:39;40.30;;;20.27;;
38379;SDS011;38377;47.418;18.882;2022-11-22T08:20:05;44.73;;;23.30;;
38379;SDS011;38377;47.418;18.882;2022-11-22T08:22:33;38.37;;;22.60;;
38379;SDS011;38377;47.418;18.882;2022-11-22T08:25:00;47.90;;;25.03;;
38379;SDS011;38377;47.418;18.882;2022-11-22T08:27:26;45.70;;;23.67;;
38379;SDS011;38377;47.418;18.882;2022-11-22T08:29:51;45.20;;;25.23;;
38379;SDS011;38377;47.418;18.882;2022-11-22T08:32:17;39.50;;;23.60;;
38379;SDS011;38377;47.418;18.882;2022-11-22T08:34:43;45.70;;;25.37;;
38379;SDS011;38377;47.418;18.882;2022-11-22T08:37:08;48.33;;;27.83;;
38379;SDS011;38377;47.418;18.882;2022-11-22T08:39:34;45.40;;;24.30;;
38379;SDS011;38377;47.418;18.882;2022-11-22T08:41:59;47.90;;;23.33;;
38379;SDS011;38377;47.418;18.882;2022-11-22T08:44:25;41.17;;;21.87;;
38379;SDS011;38377;47.418;18.882;2022-11-22T08:46:51;39.87;;;24.43;;
38379;SDS011;38377;47.418;18.882;2022-11-22T08:49:16;40.57;;;23.13;;
38379;SDS011;38377;47.418;18.882;2022-11-22T08:51:42;41.90;;;23.93;;
38379;SDS011;38377;47.418;18.882;2022-11-22T08:54:12;40.33;;;24.20;;
38379;SDS011;38377;47.418;18.882;2022-11-22T08:56:39;39.90;;;23.33;;
38379;SDS011;38377;47.418;18.882;2022-11-22T08:59:05;44.90;;;24.43;;
38379;SDS011;38377;47.418;18.882;2022-11-22T09:01:31;38.97;;;21.83;;
38379;SDS011;38377;47.418;18.882;2022-11-22T09:03:57;38.23;;;23.13;;
38379;SDS011;38377;47.418;18.882;2022-11-22T09:06:23;35.53;;;21.63;;
38379;SDS011;38377;47.418;18.882;2022-11-22T09:08:49;29.73;;;17.60;;
38379;SDS011;38377;47.418;18.882;2022-11-22T09:11:15;34.03;;;21.17;;
38379;SDS011;38377;47.418;18.882;2022-11-22T09:13:43;37.53;;;21.43;;
38379;SDS011;38377;47.418;18.882;2022-11-22T09:16:10;33.73;;;20.17;;
38379;SDS011;38377;47.418;18.882;2022-11-22T09:18:38;34.77;;;20.73;;
38379;SDS011;38377;47.418;18.882;2022-11-22T09:21:06;37.37;;;22.27;;
38379;SDS011;38377;47.418;18.882;2022-11-22T09:23:34;36.63;;;20.90;;
38379;SDS011;38377;47.418;18.882;2022-11-22T09:26:02;31.27;;;18.63;;
38379;SDS011;38377;47.418;18.882;2022-11-22T09:28:32;35.30;;;20.67;;
38379;SDS011;38377;47.418;18.882;2022-11-22T09:33:36;30.40;;;19.97;;
38379;SDS011;38377;47.418;18.882;2022-11-22T09:38:30;36.07;;;21.90;;
38379;SDS011;38377;47.418;18.882;2022-11-22T09:40:57;34.40;;;20.90;;
38379;SDS011;38377;47.418;18.882;2022-11-22T09:52:52;34.17;;;20.33;;
38379;SDS011;38377;47.418;18.882;2022-11-22T09:55:39;33.25;;;20.75;;
38379;SDS011;38377;47.418;18.882;2022-11-22T09:58:14;36.40;;;21.05;;
38379;SDS011;38377;47.418;18.882;2022-11-22T10:01:01;33.33;;;20.13;;
38379;SDS011;38377;47.418;18.882;2022-11-22T10:03:59;35.90;;;20.70;;
38379;SDS011;38377;47.418;18.882;2022-11-22T10:06:33;32.45;;;19.10;;
38379;SDS011;38377;47.418;18.882;2022-11-22T10:11:46;36.58;;;21.55;;
38379;SDS011;38377;47.418;18.882;2022-11-22T10:19:41;33.08;;;20.67;;
38379;SDS011;38377;47.418;18.882;2022-11-22T10:22:16;30.40;;;18.73;;
38379;SDS011;38377;47.418;18.882;2022-11-22T10:24:43;36.35;;;21.02;;
38379;SDS011;38377;47.418;18.882;2022-11-22T10:27:12;35.10;;;21.75;;
38379;SDS011;38377;47.418;18.882;2022-11-22T10:35:29;35.47;;;21.30;;
38379;SDS011;38377;47.418;18.882;2022-11-22T11:00:19;38.15;;;21.13;;
38379;SDS011;38377;47.418;18.882;2022-11-22T11:05:38;36.97;;;22.80;;
38379;SDS011;38377;47.418;18.882;2022-11-22T11:08:15;36.85;;;22.05;;
38379;SDS011;38377;47.418;18.882;2022-11-22T11:11:02;36.45;;;22.63;;
38379;SDS011;38377;47.418;18.882;2022-11-22T11:13:30;32.58;;;21.40;;
38379;SDS011;38377;47.418;18.882;2022-11-22T11:16:04;33.72;;;20.35;;
38379;SDS011;38377;47.418;18.882;2022-11-22T11:18:50;28.70;;;19.23;;
38379;SDS011;38377;47.418;18.882;2022-11-22T11:21:27;34.17;;;20.85;;
38379;SDS011;38377;47.418;18.882;2022-11-22T11:23:52;31.08;;;20.13;;
38379;SDS011;38377;47.418;18.882;2022-11-22T11:29:13;32.15;;;19.30;;
38379;SDS011;38377;47.418;18.882;2022-11-22T11:34:22;30.42;;;20.17;;
38379;SDS011;38377;47.418;18.882;2022-11-22T11:36:53;35.47;;;20.73;;
38379;SDS011;38377;47.418;18.882;2022-11-22T11:39:22;32.38;;;21.60;;
38379;SDS011;38377;47.418;18.882;2022-11-22T11:41:52;32.17;;;20.38;;
38379;SDS011;38377;47.418;18.882;2022-11-22T11:47:00;29.02;;;20.33;;
38379;SDS011;38377;47.418;18.882;2022-11-22T11:49:30;29.30;;;19.30;;
38379;SDS011;38377;47.418;18.882;2022-11-22T11:51:58;33.03;;;20.80;;
38379;SDS011;38377;47.418;18.882;2022-11-22T11:57:03;29.25;;;19.63;;
38379;SDS011;38377;47.418;18.882;2022-11-22T12:02:44;29.85;;;19.13;;
38379;SDS011;38377;47.418;18.882;2022-11-22T12:07:24;32.83;;;22.63;;
38379;SDS011;38377;47.418;18.882;2022-11-22T12:09:53;27.48;;;18.88;;
38379;SDS011;38377;47.418;18.882;2022-11-22T12:15:03;29.63;;;20.15;;
38379;SDS011;38377;47.418;18.882;2022-11-22T12:17:40;31.52;;;20.13;;
38379;SDS011;38377;47.418;18.882;2022-11-22T12:20:39;32.30;;;20.17;;
38379;SDS011;38377;47.418;18.882;2022-11-22T12:25:57;32.75;;;20.30;;
38379;SDS011;38377;47.418;18.882;2022-11-22T12:28:23;33.10;;;21.02;;
38379;SDS011;38377;47.418;18.882;2022-11-22T12:33:36;34.05;;;21.05;;
38379;SDS011;38377;47.418;18.882;2022-11-22T12:36:09;36.92;;;22.58;;
38379;SDS011;38377;47.418;18.882;2022-11-22T12:38:39;50.00;;;26.88;;
38379;SDS011;38377;47.418;18.882;2022-11-22T12:41:08;35.70;;;23.42;;
38379;SDS011;38377;47.418;18.882;2022-11-22T12:46:32;43.58;;;25.15;;
38379;SDS011;38377;47.418;18.882;2022-11-22T12:49:09;37.70;;;24.08;;
38379;SDS011;38377;47.418;18.882;2022-11-22T12:51:48;49.90;;;28.30;;
38379;SDS011;38377;47.418;18.882;2022-11-22T12:54:21;49.17;;;28.42;;
38379;SDS011;38377;47.418;18.882;2022-11-22T12:56:53;39.30;;;24.33;;
38379;SDS011;38377;47.418;18.882;2022-11-22T13:04:57;38.17;;;23.00;;
38379;SDS011;38377;47.418;18.882;2022-11-22T13:07:41;43.13;;;24.33;;
38379;SDS011;38377;47.418;18.882;2022-11-22T13:10:41;43.20;;;26.85;;
38379;SDS011;38377;47.418;18.882;2022-11-22T13:16:11;45.67;;;26.50;;
38379;SDS011;38377;47.418;18.882;2022-11-22T13:18:43;40.95;;;23.98;;
38379;SDS011;38377;47.418;18.882;2022-11-22T13:26:47;39.63;;;23.48;;
38379;SDS011;38377;47.418;18.882;2022-11-22T13:29:54;42.78;;;25.52;;
38379;SDS011;38377;47.418;18.882;2022-11-22T13:32:23;37.58;;;22.63;;
38379;SDS011;38377;47.418;18.882;2022-11-22T13:37:37;37.35;;;22.65;;
38379;SDS011;38377;47.418;18.882;2022-11-22T13:40:08;38.47;;;24.73;;
38379;SDS011;38377;47.418;18.882;2022-11-22T13:42:40;38.22;;;22.10;;
38379;SDS011;38377;47.418;18.882;2022-11-22T13:47:45;36.93;;;22.70;;
38379;SDS011;38377;47.418;18.882;2022-11-22T13:53:00;35.60;;;21.08;;
38379;SDS011;38377;47.418;18.882;2022-11-22T13:55:42;33.97;;;20.85;;
38379;SDS011;38377;47.418;18.882;2022-11-22T14:00:51;32.22;;;18.35;;
38379;SDS011;38377;47.418;18.882;2022-11-22T14:05:47;38.90;;;22.37;;
38379;SDS011;38377;47.418;18.882;2022-11-22T14:08:34;36.05;;;20.02;;
38379;SDS011;38377;47.418;18.882;2022-11-22T14:11:07;36.83;;;21.00;;
38379;SDS011;38377;47.418;18.882;2022-11-22T14:25:00;35.13;;;20.77;;
38379;SDS011;38377;47.418;18.882;2022-11-22T14:30:38;35.57;;;21.17;;
38379;SDS011;38377;47.418;18.882;2022-11-22T14:33:15;33.43;;;19.17;;
38379;SDS011;38377;47.418;18.882;2022-11-22T14:36:28;35.88;;;20.90;;
38379;SDS011;38377;47.418;18.882;2022-11-22T14:38:32;33.05;;;21.35;;
38379;SDS011;38377;47.418;18.882;2022-11-22T14:43:56;32.95;;;19.80;;
38379;SDS011;38377;47.418;18.882;2022-11-22T14:46:28;36.73;;;22.33;;
38379;SDS011;38377;47.418;18.882;2022-11-22T14:49:12;31.67;;;18.92;;
38379;SDS011;38377;47.418;18.882;2022-11-22T14:51:39;35.90;;;21.97;;
38379;SDS011;38377;47.418;18.882;2022-11-22T14:54:25;37.57;;;22.20;;
38379;SDS011;38377;47.418;18.882;2022-11-22T14:57:03;38.00;;;21.30;;
38379;SDS011;38377;47.418;18.882;2022-11-22T15:14:06;45.08;;;18.80;;
38379;SDS011;38377;47.418;18.882;2022-11-22T15:16:32;33.83;;;19.57;;
38379;SDS011;38377;47.418;18.882;2022-11-22T15:18:58;30.80;;;19.53;;
38379;SDS011;38377;47.418;18.882;2022-11-22T15:24:00;35.20;;;21.50;;
38379;SDS011;38377;47.418;18.882;2022-11-22T15:26:28;33.13;;;19.13;;
38379;SDS011;38377;47.418;18.882;2022-11-22T15:28:57;32.20;;;20.03;;
38379;SDS011;38377;47.418;18.882;2022-11-22T15:31:44;37.03;;;20.60;;
38379;SDS011;38377;47.418;18.882;2022-11-22T15:34:15;32.33;;;19.23;;
38379;SDS011;38377;47.418;18.882;2022-11-22T15:39:56;34.10;;;20.47;;
38379;SDS011;38377;47.418;18.882;2022-11-22T15:42:22;39.60;;;21.00;;
38379;SDS011;38377;47.418;18.882;2022-11-22T15:44:48;39.63;;;23.53;;
38379;SDS011;38377;47.418;18.882;2022-11-22T15:47:15;35.43;;;20.03;;
38379;SDS011;38377;47.418;18.882;2022-11-22T15:49:42;35.50;;;21.53;;
38379;SDS011;38377;47.418;18.882;2022-11-22T15:52:22;34.30;;;21.07;;
38379;SDS011;38377;47.418;18.882;2022-11-22T15:54:52;35.60;;;21.70;;
38379;SDS011;38377;47.418;18.882;2022-11-22T15:59:57;30.10;;;19.13;;
38379;SDS011;38377;47.418;18.882;2022-11-22T16:02:24;33.30;;;19.83;;
38379;SDS011;38377;47.418;18.882;2022-11-22T16:04:57;32.50;;;19.60;;
38379;SDS011;38377;47.418;18.882;2022-11-22T16:07:41;30.47;;;18.70;;
38379;SDS011;38377;47.418;18.882;2022-11-22T16:10:32;32.47;;;20.47;;
38379;SDS011;38377;47.418;18.882;2022-11-22T16:13:13;28.87;;;18.30;;
38379;SDS011;38377;47.418;18.882;2022-11-22T16:18:29;34.93;;;20.27;;
38379;SDS011;38377;47.418;18.882;2022-11-22T16:21:05;33.87;;;19.70;;
38379;SDS011;38377;47.418;18.882;2022-11-22T16:23:42;30.13;;;19.60;;
38379;SDS011;38377;47.418;18.882;2022-11-22T16:28:40;30.20;;;19.87;;
38379;SDS011;38377;47.418;18.882;2022-11-22T16:31:15;32.13;;;18.20;;
38379;SDS011;38377;47.418;18.882;2022-11-22T16:33:44;33.67;;;20.57;;
38379;SDS011;38377;47.418;18.882;2022-11-22T16:36:11;32.27;;;19.37;;
38379;SDS011;38377;47.418;18.882;2022-11-22T16:38:38;40.33;;;22.10;;
38379;SDS011;38377;47.418;18.882;2022-11-22T16:41:04;33.53;;;20.90;;
38379;SDS011;38377;47.418;18.882;2022-11-22T16:43:34;34.05;;;20.60;;
38379;SDS011;38377;47.418;18.882;2022-11-22T16:46:01;30.27;;;19.80;;
38379;SDS011;38377;47.418;18.882;2022-11-22T16:48:27;29.80;;;18.93;;
38379;SDS011;38377;47.418;18.882;2022-11-22T16:51:01;33.30;;;19.73;;
38379;SDS011;38377;47.418;18.882;2022-11-22T16:53:33;33.33;;;20.73;;
38379;SDS011;38377;47.418;18.882;2022-11-22T16:56:02;31.63;;;18.33;;
38379;SDS011;38377;47.418;18.882;2022-11-22T16:58:28;35.23;;;21.37;;
38379;SDS011;38377;47.418;18.882;2022-11-22T17:00:55;35.30;;;21.77;;